createdAt,value
2018-05-21T00:00:35.154Z,67.08
2018-05-21T00:03:01.299Z,68.92
2018-05-21T00:05:27.183Z,69.86
2018-05-21T00:07:53.044Z,68.63
2018-05-21T00:10:19.064Z,68.88
2018-05-21T00:12:44.931Z,68.77
2018-05-21T00:15:10.867Z,68.70
2018-05-21T00:17:36.836Z,69.46
2018-05-21T00:20:02.814Z,69.75
2018-05-21T00:22:28.775Z,66.99
2018-05-21T00:24:54.707Z,68.95
2018-05-21T00:27:20.559Z,70.13
2018-05-21T00:29:46.412Z,70.06
2018-05-21T00:32:12.340Z,69.02
2018-05-21T00:34:38.327Z,70.24
2018-05-21T00:37:04.257Z,68.94
2018-05-21T00:39:31.415Z,68.08
2018-05-21T00:41:57.290Z,70.86
2018-05-21T00:44:23.161Z,69.00
2018-05-21T00:46:49.160Z,71.78
2018-05-21T00:49:15.037Z,70.01
2018-05-21T00:51:40.922Z,68.51
2018-05-21T00:54:06.859Z,69.84
2018-05-21T00:56:32.751Z,69.33
2018-05-21T00:58:58.710Z,68.51
2018-05-21T01:01:24.631Z,68.76
2018-05-21T01:03:50.505Z,70.11
2018-05-21T01:06:16.388Z,69.90
2018-05-21T01:08:42.308Z,70.36
2018-05-21T01:11:08.307Z,71.88
2018-05-21T01:13:34.228Z,71.26
2018-05-21T01:16:00.158Z,71.11
2018-05-21T01:18:26.064Z,71.11
2018-05-21T01:20:51.946Z,71.96
2018-05-21T01:23:17.935Z,71.56
2018-05-21T01:25:43.807Z,71.76
2018-05-21T01:28:09.671Z,71.44
2018-05-21T01:30:35.608Z,71.91
2018-05-21T01:33:01.529Z,71.47
2018-05-21T01:35:27.508Z,70.85
2018-05-21T01:37:53.427Z,71.25
2018-05-21T01:40:19.309Z,71.60
2018-05-21T01:42:45.183Z,71.22
2018-05-21T01:45:11.100Z,71.57
2018-05-21T01:47:37.086Z,71.84
2018-05-21T01:50:03.012Z,72.68
2018-05-21T01:52:29.332Z,72.54
2018-05-21T01:54:55.200Z,72.99
2018-05-21T01:57:21.071Z,73.26
2018-05-21T01:59:47.072Z,73.35
2018-05-21T02:02:12.935Z,73.85
2018-05-21T02:04:39.939Z,73.66
2018-05-21T02:07:06.042Z,75.07
2018-05-21T02:09:31.936Z,74.26
2018-05-21T02:11:57.908Z,74.72
2018-05-21T02:14:23.874Z,75.00
2018-05-21T02:16:49.809Z,73.98
2018-05-21T02:19:15.683Z,74.29
2018-05-21T02:21:41.597Z,74.63
2018-05-21T02:24:07.579Z,73.89
2018-05-21T02:26:33.502Z,74.33
2018-05-21T02:28:59.455Z,74.44
2018-05-21T02:31:25.331Z,74.59
2018-05-21T02:33:51.197Z,74.14
2018-05-21T02:36:17.213Z,74.80
2018-05-21T02:38:43.092Z,75.54
2018-05-21T02:41:09.020Z,74.92
2018-05-21T02:43:34.981Z,72.68
2018-05-21T02:46:01.149Z,75.04
2018-05-21T02:48:27.090Z,74.49
2018-05-21T02:50:53.015Z,74.29
2018-05-21T02:53:18.939Z,75.34
2018-05-21T02:55:44.818Z,75.17
2018-05-21T02:58:10.727Z,75.43
2018-05-21T03:00:36.795Z,74.79
2018-05-21T03:03:02.713Z,74.70
2018-05-21T03:05:28.695Z,74.72
2018-05-21T03:07:54.561Z,74.51
2018-05-21T03:10:20.488Z,74.97
2018-05-21T03:12:46.508Z,73.84
2018-05-21T03:15:12.387Z,75.55
2018-05-21T03:17:38.314Z,74.49
2018-05-21T03:20:04.263Z,75.42
2018-05-21T03:22:30.131Z,75.10
2018-05-21T03:24:56.108Z,75.12
2018-05-21T03:27:22.029Z,74.91
2018-05-21T03:29:48.007Z,74.56
2018-05-21T03:32:13.863Z,75.59
2018-05-21T03:34:40.165Z,75.36
2018-05-21T03:37:06.155Z,76.08
2018-05-21T03:39:32.072Z,75.70
2018-05-21T03:41:58.051Z,75.71
2018-05-21T03:44:23.920Z,74.52
2018-05-21T03:46:49.792Z,74.45
2018-05-21T03:49:15.883Z,75.61
2018-05-21T03:51:41.766Z,74.66
2018-05-21T03:54:07.715Z,75.46
2018-05-21T03:56:34.077Z,74.92
2018-05-21T03:59:12.323Z,75.47
2018-05-21T04:01:50.738Z,77.23
2018-05-21T04:04:16.681Z,77.56
2018-05-21T04:06:42.660Z,76.80
2018-05-21T04:09:08.573Z,76.52
2018-05-21T04:11:34.473Z,76.87
2018-05-21T04:14:00.403Z,76.60
2018-05-21T04:16:26.368Z,75.29
2018-05-21T04:18:52.351Z,76.00
2018-05-21T04:21:18.135Z,74.58
2018-05-21T04:23:44.048Z,74.89
2018-05-21T04:26:10.007Z,76.22
2018-05-21T04:28:35.921Z,74.62
2018-05-21T04:31:01.883Z,73.05
2018-05-21T04:33:27.755Z,72.97
2018-05-21T04:35:53.618Z,71.53
2018-05-21T04:38:19.511Z,72.81
2018-05-21T04:40:45.417Z,71.74
2018-05-21T04:43:11.280Z,70.42
2018-05-21T04:45:37.232Z,69.28
2018-05-21T04:48:03.155Z,70.14
2018-05-21T04:50:29.023Z,70.19
2018-05-21T04:52:54.951Z,69.14
2018-05-21T04:55:20.852Z,69.05
2018-05-21T04:57:46.711Z,68.38
2018-05-21T05:00:12.683Z,66.09
2018-05-21T05:02:38.579Z,66.76
2018-05-21T05:05:04.615Z,67.73
2018-05-21T05:07:30.543Z,66.09
2018-05-21T05:09:56.468Z,66.18
2018-05-21T05:12:22.517Z,64.88
2018-05-21T05:14:48.447Z,64.17
2018-05-21T05:17:14.420Z,65.14
2018-05-21T05:19:40.296Z,63.77
2018-05-21T05:22:06.684Z,63.74
2018-05-21T05:24:32.619Z,63.59
2018-05-21T05:26:58.549Z,64.18
2018-05-21T05:29:24.536Z,61.40
2018-05-21T05:31:50.397Z,61.32
2018-05-21T05:34:16.271Z,61.65
2018-05-21T05:36:42.197Z,60.42
2018-05-21T05:39:08.099Z,60.02
2018-05-21T05:41:34.019Z,60.64
2018-05-21T05:43:59.931Z,58.79
2018-05-21T05:46:25.807Z,59.58
2018-05-21T05:48:51.782Z,58.72
2018-05-21T05:51:17.699Z,58.09
2018-05-21T05:53:43.573Z,57.57
2018-05-21T05:56:09.459Z,58.10
2018-05-21T05:58:35.454Z,56.82
2018-05-21T06:01:01.405Z,57.51
2018-05-21T06:03:27.282Z,58.01
2018-05-21T06:05:53.206Z,57.48
2018-05-21T06:08:19.067Z,57.49
2018-05-21T06:10:45.195Z,55.84
2018-05-21T06:13:11.108Z,56.79
2018-05-21T06:15:37.000Z,57.40
2018-05-21T06:18:03.021Z,56.83
2018-05-21T06:20:28.947Z,57.11
2018-05-21T06:22:54.799Z,56.37
2018-05-21T06:25:20.679Z,55.88
2018-05-21T06:27:46.600Z,55.79
2018-05-21T06:30:12.595Z,55.89
2018-05-21T06:32:38.474Z,53.92
2018-05-21T06:35:04.440Z,55.44
2018-05-21T06:37:30.409Z,54.54
2018-05-21T06:39:56.280Z,54.19
2018-05-21T06:42:22.251Z,53.71
2018-05-21T06:44:48.128Z,54.49
2018-05-21T06:47:14.063Z,52.89
2018-05-21T06:49:40.099Z,51.24
2018-05-21T06:52:05.972Z,51.04
2018-05-21T06:54:31.939Z,52.13
2018-05-21T06:56:57.872Z,51.06
2018-05-21T06:59:23.758Z,51.38
2018-05-21T07:01:49.641Z,50.01
2018-05-21T07:04:15.572Z,50.28
2018-05-21T07:06:41.494Z,49.78
2018-05-21T07:09:07.400Z,51.66
2018-05-21T07:11:33.373Z,49.53
2018-05-21T07:13:59.243Z,49.35
2018-05-21T07:16:25.129Z,47.38
2018-05-21T07:18:51.031Z,48.71
2018-05-21T07:21:16.903Z,48.69
2018-05-21T07:23:42.763Z,47.82
2018-05-21T07:26:08.725Z,46.29
2018-05-21T07:28:34.607Z,45.86
2018-05-21T07:31:00.467Z,46.74
2018-05-21T07:33:26.392Z,45.45
2018-05-21T07:35:52.258Z,45.72
2018-05-21T07:38:18.207Z,44.46
2018-05-21T07:40:44.123Z,44.77
2018-05-21T07:43:09.995Z,44.99
2018-05-21T07:45:35.883Z,43.12
2018-05-21T07:48:01.805Z,44.07
2018-05-21T07:50:27.700Z,41.58
2018-05-21T07:52:53.576Z,41.97
2018-05-21T07:55:19.530Z,41.45
2018-05-21T07:57:45.460Z,39.88
2018-05-21T08:00:11.382Z,40.49
2018-05-21T08:02:37.306Z,38.98
2018-05-21T08:05:03.331Z,39.67
2018-05-21T08:07:29.167Z,39.30
2018-05-21T08:09:55.078Z,39.57
2018-05-21T08:12:20.980Z,39.54
2018-05-21T08:14:47.015Z,39.57
2018-05-21T08:17:12.856Z,39.50
2018-05-21T08:19:38.738Z,39.54
2018-05-21T08:22:04.622Z,39.57
2018-05-21T08:24:30.556Z,38.72
2018-05-21T08:26:56.472Z,37.23
2018-05-21T08:29:22.353Z,39.60
2018-05-21T08:31:48.379Z,39.05
2018-05-21T08:34:14.236Z,36.99
2018-05-21T08:36:40.151Z,38.32
2018-05-21T08:39:06.095Z,36.44
2018-05-21T08:41:32.009Z,35.24
2018-05-21T08:43:57.911Z,34.72
2018-05-21T08:46:23.884Z,35.72
2018-05-21T08:48:49.941Z,35.64
2018-05-21T08:51:15.723Z,36.41
2018-05-21T08:53:41.662Z,36.31
2018-05-21T08:56:07.541Z,35.50
2018-05-21T08:58:33.430Z,36.06
2018-05-21T09:00:59.395Z,32.74
2018-05-21T09:03:25.302Z,34.64
2018-05-21T09:05:51.179Z,34.04
2018-05-21T09:08:17.203Z,33.39
2018-05-21T09:10:43.069Z,32.82
2018-05-21T09:13:08.965Z,32.34
2018-05-21T09:15:34.909Z,32.90
2018-05-21T09:18:00.796Z,33.71
2018-05-21T09:20:26.781Z,33.11
2018-05-21T09:22:52.694Z,32.87
2018-05-21T09:25:18.618Z,30.95
2018-05-21T09:27:44.511Z,31.94
2018-05-21T09:30:16.921Z,32.97
2018-05-21T09:32:42.862Z,32.05
2018-05-21T09:35:08.763Z,32.95
2018-05-21T09:37:34.819Z,31.78
2018-05-21T09:40:00.716Z,34.91
2018-05-21T09:42:26.643Z,30.26
2018-05-21T09:44:52.560Z,31.72
2018-05-21T09:47:18.511Z,30.26
2018-05-21T09:49:44.387Z,30.83
2018-05-21T09:52:10.364Z,31.46
2018-05-21T09:54:36.221Z,29.61
2018-05-21T09:57:02.124Z,29.37
2018-05-21T09:59:28.059Z,34.17
2018-05-21T10:01:53.930Z,31.78
2018-05-21T10:04:21.871Z,33.03
2018-05-21T10:06:47.810Z,32.17
2018-05-21T10:09:13.716Z,30.42
2018-05-21T10:11:39.690Z,30.99
2018-05-21T10:14:05.614Z,29.57
2018-05-21T10:16:31.516Z,31.25
2018-05-21T10:18:57.396Z,31.65
2018-05-21T10:21:23.331Z,30.31
2018-05-21T10:23:49.305Z,29.56
2018-05-21T10:26:15.178Z,28.19
2018-05-21T10:28:41.113Z,30.35
2018-05-21T10:31:08.039Z,29.62
2018-05-21T10:33:33.939Z,29.45
2018-05-21T10:35:59.913Z,32.31
2018-05-21T10:38:25.796Z,29.91
2018-05-21T10:40:51.721Z,29.90
2018-05-21T10:43:17.667Z,30.18
2018-05-21T10:45:43.565Z,29.58
2018-05-21T10:50:35.297Z,28.72
2018-05-21T10:53:01.172Z,29.24
2018-05-21T10:55:27.077Z,28.79
2018-05-21T10:57:53.037Z,28.96
2018-05-21T11:00:19.967Z,27.19
2018-05-21T11:02:45.870Z,27.07
2018-05-21T11:05:11.807Z,28.39
2018-05-21T11:07:37.683Z,28.45
2018-05-21T11:10:03.588Z,26.67
2018-05-21T11:12:29.618Z,26.98
2018-05-21T11:14:55.499Z,26.73
2018-05-21T11:17:21.401Z,25.63
2018-05-21T11:19:47.383Z,26.65
2018-05-21T11:22:13.255Z,23.76
2018-05-21T11:24:39.187Z,25.68
2018-05-21T11:27:05.084Z,25.97
2018-05-21T11:29:31.421Z,25.89
2018-05-21T11:31:57.296Z,25.45
2018-05-21T11:34:23.231Z,25.45
2018-05-21T11:36:49.168Z,24.78
2018-05-21T11:39:15.049Z,24.19
2018-05-21T11:41:40.973Z,24.55
2018-05-21T11:44:06.845Z,26.85
2018-05-21T11:46:32.703Z,26.22
2018-05-21T11:48:58.613Z,26.29
2018-05-21T11:51:24.482Z,23.94
2018-05-21T11:53:50.424Z,24.61
2018-05-21T11:56:16.713Z,24.29
2018-05-21T11:58:42.601Z,25.36
2018-05-21T12:01:08.504Z,23.63
2018-05-21T12:03:34.469Z,21.02
2018-05-21T12:06:00.356Z,20.52
2018-05-21T12:08:26.235Z,21.44
2018-05-21T12:10:52.185Z,24.35
2018-05-21T12:13:18.135Z,24.98
2018-05-21T12:15:44.005Z,25.90
2018-05-21T12:18:09.964Z,25.54
2018-05-21T12:20:35.872Z,26.33
2018-05-21T12:23:01.764Z,27.86
2018-05-21T12:25:27.672Z,26.24
2018-05-21T12:27:53.605Z,27.99
2018-05-21T12:30:19.520Z,27.06
2018-05-21T12:32:45.737Z,28.01
2018-05-21T12:35:11.683Z,26.52
2018-05-21T12:37:37.552Z,26.52
2018-05-21T12:40:06.640Z,27.29
2018-05-21T12:42:32.512Z,28.22
2018-05-21T12:44:58.383Z,28.32
2018-05-21T12:47:24.327Z,28.65
2018-05-21T12:49:50.235Z,28.55
2018-05-21T12:52:16.106Z,27.44
2018-05-21T12:54:42.051Z,28.18
2018-05-21T12:57:07.928Z,28.56
2018-05-21T12:59:33.923Z,29.78
2018-05-21T13:01:59.855Z,27.62
2018-05-21T13:04:25.740Z,28.45
2018-05-21T13:06:51.707Z,28.63
2018-05-21T13:09:18.775Z,28.81
2018-05-21T13:11:44.708Z,28.01
2018-05-21T13:14:10.672Z,27.13
2018-05-21T13:16:36.581Z,27.93
2018-05-21T13:19:02.491Z,28.50
2018-05-21T13:21:28.367Z,28.44
2018-05-21T13:23:54.371Z,27.98
2018-05-21T13:26:20.354Z,26.31
2018-05-21T13:28:46.275Z,28.83
2018-05-21T13:31:12.188Z,27.52
2018-05-21T13:33:38.092Z,28.34
2018-05-21T13:36:04.039Z,26.72
2018-05-21T13:38:30.019Z,27.62
2018-05-21T13:40:55.937Z,24.98
2018-05-21T13:43:21.829Z,25.92
2018-05-21T13:45:47.839Z,26.68
2018-05-21T13:48:13.877Z,27.65
2018-05-21T13:50:39.847Z,27.85
2018-05-21T13:53:05.796Z,27.87
2018-05-21T13:55:31.673Z,28.28
2018-05-21T13:57:57.580Z,27.84
2018-05-21T14:00:23.575Z,26.92
2018-05-21T14:02:49.578Z,27.27
2018-05-21T14:05:15.451Z,27.37
2018-05-21T14:07:41.403Z,25.85
2018-05-21T14:10:07.278Z,26.16
2018-05-21T14:12:33.252Z,26.99
2018-05-21T14:14:59.214Z,26.93
2018-05-21T14:17:25.166Z,26.97
2018-05-21T14:19:51.068Z,25.65
2018-05-21T14:22:17.053Z,25.97
2018-05-21T14:24:44.164Z,26.20
2018-05-21T14:27:10.248Z,26.35
2018-05-21T14:29:36.668Z,27.22
2018-05-21T14:32:02.569Z,26.94
2018-05-21T14:34:28.784Z,26.75
2018-05-21T14:36:54.884Z,27.37
2018-05-21T14:39:20.780Z,28.26
2018-05-21T14:41:46.635Z,28.71
2018-05-21T14:44:12.569Z,27.08
2018-05-21T14:46:38.651Z,25.03
2018-05-21T14:49:04.609Z,25.74
2018-05-21T14:51:30.555Z,25.90
2018-05-21T14:53:56.416Z,26.90
2018-05-21T14:56:22.284Z,28.13
2018-05-21T14:58:48.387Z,26.50
2018-05-21T15:01:16.324Z,27.12
2018-05-21T15:03:42.297Z,25.53
2018-05-21T15:06:08.288Z,23.95
2018-05-21T15:08:34.278Z,22.83
2018-05-21T15:11:00.140Z,21.04
2018-05-21T15:13:26.076Z,19.86
2018-05-21T15:15:52.012Z,20.82
2018-05-21T15:18:17.966Z,20.02
2018-05-21T15:20:43.900Z,19.34
2018-05-21T15:23:09.842Z,21.41
2018-05-21T15:25:35.761Z,20.54
2018-05-21T15:28:01.679Z,21.40
2018-05-21T15:30:27.588Z,20.64
2018-05-21T15:32:53.498Z,19.89
2018-05-21T15:35:19.460Z,21.07
2018-05-21T15:37:45.342Z,21.35
2018-05-21T15:40:11.219Z,21.60
2018-05-21T15:42:37.162Z,21.41
2018-05-21T15:45:03.068Z,21.74
2018-05-21T15:47:29.380Z,23.48
2018-05-21T15:49:55.295Z,23.94
2018-05-21T15:52:21.207Z,25.79
2018-05-21T15:54:47.128Z,25.78
2018-05-21T15:57:13.055Z,26.71
2018-05-21T15:59:38.939Z,26.12
2018-05-21T16:02:04.839Z,27.06
2018-05-21T16:04:30.783Z,27.38
2018-05-21T16:06:56.781Z,27.89
2018-05-21T16:09:22.678Z,26.81
2018-05-21T16:11:49.713Z,26.86
2018-05-21T16:14:15.664Z,27.61
2018-05-21T16:16:41.619Z,28.09
2018-05-21T16:19:07.618Z,27.38
2018-05-21T16:21:33.569Z,27.07
2018-05-21T16:24:00.551Z,27.88
2018-05-21T16:26:26.486Z,27.27
2018-05-21T16:28:52.477Z,27.43
2018-05-21T16:31:19.557Z,27.59
2018-05-21T16:33:45.508Z,27.36
2018-05-21T16:36:11.390Z,27.35
2018-05-21T16:38:37.332Z,27.29
2018-05-21T16:41:03.343Z,27.24
2018-05-21T16:43:29.287Z,27.23
2018-05-21T16:45:55.182Z,27.54
2018-05-21T16:48:21.114Z,27.94
2018-05-21T16:50:46.984Z,28.50
2018-05-21T16:53:12.871Z,28.00
2018-05-21T16:55:38.796Z,28.33
2018-05-21T16:58:04.723Z,28.68
2018-05-21T17:00:30.740Z,29.37
2018-05-21T17:02:56.615Z,28.84
2018-05-21T17:05:22.500Z,28.52
2018-05-21T17:07:48.412Z,29.08
2018-05-21T17:10:14.385Z,29.02
2018-05-21T17:12:40.264Z,28.90
2018-05-21T17:15:06.133Z,29.83
2018-05-21T17:17:32.081Z,28.75
2018-05-21T17:19:58.019Z,29.39
2018-05-21T17:22:23.899Z,29.67
2018-05-21T17:24:50.060Z,29.41
2018-05-21T17:27:15.946Z,29.58
2018-05-21T17:29:41.915Z,30.36
2018-05-21T17:32:07.859Z,29.58
2018-05-21T17:34:33.723Z,29.12
2018-05-21T17:36:59.630Z,29.50
2018-05-21T17:39:25.624Z,30.01
2018-05-21T17:41:51.552Z,30.18
2018-05-21T17:44:18.460Z,29.50
2018-05-21T17:46:44.392Z,30.40
2018-05-21T17:49:10.271Z,30.32
2018-05-21T17:51:36.201Z,30.57
2018-05-21T17:54:02.094Z,30.05
2018-05-21T17:56:27.990Z,31.21
2018-05-21T17:58:53.871Z,31.37
2018-05-21T18:01:19.809Z,32.01
2018-05-21T18:03:45.796Z,32.19
2018-05-21T18:06:11.696Z,32.83
2018-05-21T18:08:38.736Z,32.73
2018-05-21T18:11:04.604Z,32.46
2018-05-21T18:13:30.496Z,32.87
2018-05-21T18:15:56.472Z,33.38
2018-05-21T18:18:22.351Z,33.03
2018-05-21T18:20:48.346Z,34.48
2018-05-21T18:23:14.352Z,35.26
2018-05-21T18:25:40.259Z,34.11
2018-05-21T18:28:06.151Z,35.05
2018-05-21T18:30:32.114Z,35.25
2018-05-21T18:32:58.079Z,35.43
2018-05-21T18:35:23.952Z,35.34
2018-05-21T18:37:49.868Z,35.80
2018-05-21T18:40:15.784Z,35.54
2018-05-21T18:42:41.789Z,35.42
2018-05-21T18:45:07.793Z,36.38
2018-05-21T18:47:33.667Z,36.18
2018-05-21T18:49:59.560Z,36.84
2018-05-21T18:52:25.480Z,37.24
2018-05-21T18:54:51.352Z,38.04
2018-05-21T18:57:17.267Z,38.21
2018-05-21T18:59:43.228Z,37.25
2018-05-21T19:02:09.130Z,37.85
2018-05-21T19:04:35.012Z,38.74
2018-05-21T19:07:00.943Z,37.78
2018-05-21T19:09:26.897Z,39.44
2018-05-21T19:11:52.849Z,39.88
2018-05-21T19:14:19.191Z,39.28
2018-05-21T19:16:45.096Z,40.38
2018-05-21T19:19:11.033Z,40.21
2018-05-21T19:21:37.033Z,40.39
2018-05-21T19:24:03.067Z,41.31
2018-05-21T19:26:29.021Z,41.77
2018-05-21T19:28:54.987Z,43.55
2018-05-21T19:31:20.883Z,44.75
2018-05-21T19:33:46.874Z,43.86
2018-05-21T19:36:12.840Z,44.29
2018-05-21T19:38:38.710Z,47.45
2018-05-21T19:41:04.600Z,48.10
2018-05-21T19:43:31.295Z,46.78
2018-05-21T19:45:58.520Z,48.82
2018-05-21T19:48:24.391Z,49.77
2018-05-21T19:50:50.434Z,50.94
2018-05-21T19:53:16.412Z,50.40
2018-05-21T19:55:42.336Z,50.78
2018-05-21T19:58:08.253Z,51.75
2018-05-21T20:00:34.123Z,52.02
2018-05-21T20:03:00.043Z,52.75
2018-05-21T20:05:25.984Z,53.23
2018-05-21T20:07:52.057Z,54.07
2018-05-21T20:10:18.049Z,54.03
2018-05-21T20:12:44.382Z,54.54
2018-05-21T20:15:10.456Z,54.42
2018-05-21T20:17:36.341Z,55.88
2018-05-21T20:20:02.294Z,54.73
2018-05-21T20:22:28.268Z,55.27
2018-05-21T20:24:54.155Z,55.90
2018-05-21T20:27:20.399Z,55.47
2018-05-21T20:29:46.446Z,56.07
2018-05-21T20:32:12.345Z,55.50
2018-05-21T20:34:38.254Z,56.35
2018-05-21T20:37:04.182Z,56.13
2018-05-21T20:39:30.325Z,55.60
2018-05-21T20:41:56.247Z,53.54
2018-05-21T20:44:22.172Z,53.93
2018-05-21T20:46:48.082Z,53.47
2018-05-21T20:49:14.083Z,53.17
2018-05-21T20:51:40.044Z,54.65
2018-05-21T20:54:05.923Z,55.45
2018-05-21T20:56:31.852Z,55.86
2018-05-21T20:58:57.731Z,55.26
2018-05-21T21:01:23.813Z,57.42
2018-05-21T21:03:49.683Z,57.33
2018-05-21T21:06:15.656Z,56.74
2018-05-21T21:08:41.541Z,55.65
2018-05-21T21:11:07.463Z,56.64
2018-05-21T21:13:33.329Z,57.20
2018-05-21T21:15:59.215Z,57.24
2018-05-21T21:18:25.115Z,57.28
2018-05-21T21:20:50.996Z,58.29
2018-05-21T21:23:16.948Z,59.95
2018-05-21T21:25:42.882Z,57.76
2018-05-21T21:28:08.747Z,59.69
2018-05-21T21:30:34.660Z,59.95
2018-05-21T21:33:00.620Z,60.11
2018-05-21T21:35:26.507Z,59.76
2018-05-21T21:37:52.375Z,59.77
2018-05-21T21:40:18.295Z,61.50
2018-05-21T21:42:44.163Z,61.02
2018-05-21T21:45:10.041Z,60.58
2018-05-21T21:47:35.963Z,61.08
2018-05-21T21:50:01.873Z,58.86
2018-05-21T21:52:27.822Z,59.30
2018-05-21T21:54:53.744Z,58.08
2018-05-21T21:57:19.607Z,59.57
2018-05-21T21:59:45.472Z,59.79
2018-05-21T22:02:11.478Z,58.98
2018-05-21T22:04:37.289Z,61.03
2018-05-21T22:07:03.180Z,60.73
2018-05-21T22:09:29.219Z,60.27
2018-05-21T22:11:55.118Z,62.16
2018-05-21T22:14:21.014Z,59.40
2018-05-21T22:16:46.931Z,59.19
2018-05-21T22:19:12.796Z,61.73
2018-05-21T22:21:38.658Z,60.80
2018-05-21T22:24:04.689Z,61.67
2018-05-21T22:26:30.580Z,61.33
2018-05-21T22:28:56.464Z,62.36
2018-05-21T22:31:22.397Z,62.97
2018-05-21T22:33:48.263Z,63.03
2018-05-21T22:36:14.145Z,62.96
2018-05-21T22:38:40.140Z,63.09
2018-05-21T22:41:06.032Z,63.59
2018-05-21T22:43:31.941Z,63.54
2018-05-21T22:45:57.960Z,63.73
2018-05-21T22:48:23.828Z,64.46
2018-05-21T22:50:49.708Z,64.14
2018-05-21T22:53:15.649Z,64.71
2018-05-21T22:55:41.535Z,63.85
2018-05-21T22:58:07.421Z,63.50
2018-05-21T23:00:33.461Z,64.24
2018-05-21T23:02:59.348Z,64.11
2018-05-21T23:05:25.222Z,63.85
2018-05-21T23:07:51.141Z,65.50
2018-05-21T23:10:17.031Z,65.58
2018-05-21T23:12:42.905Z,66.38
2018-05-21T23:15:08.814Z,65.23
2018-05-21T23:17:34.688Z,65.36
2018-05-21T23:20:00.612Z,64.98
2018-05-21T23:22:38.840Z,66.21
2018-05-21T23:25:04.755Z,66.55
2018-05-21T23:27:30.630Z,67.03
2018-05-21T23:29:56.603Z,67.33
2018-05-21T23:32:22.487Z,68.22
2018-05-21T23:34:49.185Z,66.76
2018-05-21T23:37:15.087Z,67.87
2018-05-21T23:39:40.953Z,67.03
2018-05-21T23:42:06.834Z,67.41
2018-05-21T23:44:32.780Z,68.08
2018-05-21T23:46:58.693Z,68.54
2018-05-21T23:49:24.570Z,67.77
2018-05-21T23:51:50.483Z,69.70
2018-05-21T23:54:16.359Z,69.21
2018-05-21T23:56:42.241Z,67.90
2018-05-21T23:59:08.159Z,69.13
